Parkerton, Wyoming
Current Conditions -  °F | °C
As of 8:53 PM on Tuesday 21 Oct 2014 (Local Time) from KCPR Reporting Station
Few Clouds Few Clouds  
Wind Chill: 55°   Ceiling: Unl
Heat Index: 55°   Visibility: 10mi
Dew Point: 38°   Wind: 20mph
Humidity: 53%   Direction: 220°SW
Pressure: 29.91"   Gusts: NA
Location:  43.0973°N, 105.88°W
Report Text: KCPR 220253Z 22017KT 10SM FEW120 13/03 A2991 RMK AO2 RAB16E26 SLP087 P0000 60000 T01280033 50015
Loading
Personal Weather Stations






























Interactive Weather Map
Tropical Storm Tracking
New forecast layout! Learn more

10-Day Weather Forecast

Advertisements
Track Severe Weather on mobile